Eira — OJJP — position and weather

sailwx.info

Track history (hours):
 
Tides and Currents Weather Stations Pressure Air Temp Water Temp Dewpoint Dewpoint Depression Visibility Wind Speed Wind Dir Waves Ship Positions

Eira

Last reported at 2017-May-27 18:54 UTC. Time now 2017-May-29 01:56 UTC.
Position N 60°17' E 027°54'.

Length 157 m; draft 6.2 m.

Type: Cargo ship. MMSI: 230935000.

Date/timePositionNaut miles runAvg speedWind from/ knotsBaromVisibWave heightAir tempDewpointWater temp
2017-May-27 18:54N 60°17' E 027°54'512.5
2017-May-27 18:28N 60°13' E 027°48'612.2
2017-May-27 18:00N 60°09' E 027°39'612.3
2017-May-27 17:30N 60°06' E 027°29'1012.4
2017-May-27 16:43N 60°01' E 027°12'312.6
2017-May-27 16:30N 59°59' E 027°07'612.0
2017-May-27 15:58N 59°59' E 026°55'612.8
2017-May-27 15:30N 59°59' E 026°43'612.6
2017-May-27 15:00N 59°58' E 026°30'612.8
2017-May-27 14:30N 59°57' E 026°18'1212.4
2017-May-27 13:30N 59°54' E 025°54'612.3
2017-May-27 13:00N 59°52' E 025°42'612.6
2017-May-27 12:30N 59°51' E 025°30'1112.5
2017-May-27 11:39N 59°49' E 025°09'3012.9
2017-May-27 09:21N 59°51' E 024°10'411.3
2017-May-27 09:01N 59°55' E 024°11'510.7
2017-May-27 08:30N 59°58' E 024°04'5 9.4
2017-May-27 08:01N 60°01' E 023°56'0 0.5
2017-May-27 07:30N 60°01' E 023°55'0 0.0
2017-May-27 06:56N 60°01' E 023°55'0 0.0
2017-May-26 04:59N 60°01' E 023°55'0 0.0
2017-May-26 04:29N 60°01' E 023°55'0 0.0
2017-May-26 03:59N 60°01' E 023°55'0 0.0
2017-May-26 03:29N 60°01' E 023°55'0 0.0
2017-May-26 02:59N 60°01' E 023°55'0 0.0
2017-May-26 02:29N 60°01' E 023°55'0 0.0
2017-May-26 01:59N 60°01' E 023°55'0 0.0
2017-May-26 01:26N 60°01' E 023°55'0 0.0
2017-May-26 00:59N 60°01' E 023°55'0 0.0
2017-May-26 00:29N 60°01' E 023°55'0 0.0
2017-May-25 23:59N 60°01' E 023°55'0 0.0
2017-May-25 23:29N 60°01' E 023°55'0 0.0
2017-May-25 22:59N 60°01' E 023°55'0 0.0
2017-May-25 22:29N 60°01' E 023°55'0 0.0
2017-May-25 21:56N 60°01' E 023°55'0 0.0
2017-May-25 21:29N 60°01' E 023°55'0 0.0
2017-May-25 20:53N 60°01' E 023°55'0 0.0
2017-May-25 20:29N 60°01' E 023°55'0 0.0
2017-May-25 19:59N 60°01' E 023°55'0 0.0
2017-May-25 19:26N 60°01' E 023°55'0 0.0
2017-May-25 18:59N 60°01' E 023°55'0 0.0
2017-May-25 18:23N 60°01' E 023°55'0 0.0
2017-May-25 17:59N 60°01' E 023°55'0 0.0
2017-May-25 17:23N 60°01' E 023°55'0 0.0
2017-May-25 16:47N 60°01' E 023°55'0 0.0
2017-May-25 16:29N 60°01' E 023°55'1 2.6
2017-May-25 15:59N 60°00' E 023°58'4 7.4
2017-May-25 15:30N 59°58' E 024°03'611.4
2017-May-25 15:00N 59°54' E 024°11'42 9.7
2017-May-25 10:41N 59°55' E 025°35'210.6
2017-May-25 10:30N 59°55' E 025°38'510.7
2017-May-25 10:00N 59°56' E 025°49'1110.7
2017-May-25 09:00N 59°58' E 026°10'610.6
2017-May-25 08:25N 60°00' E 026°22'410.8
2017-May-25 08:00N 60°01' E 026°30'510.5
2017-May-25 07:30N 60°01' E 026°41'510.8
2017-May-25 07:00N 60°00' E 026°51'611.0
2017-May-25 06:26N 59°60' E 027°04'511.0
2017-May-25 06:00N 60°02' E 027°12'611.2
2017-May-25 05:30N 60°05' E 027°22'611.3
2017-May-25 05:00N 60°08' E 027°31'611.1
2017-May-25 04:30N 60°11' E 027°41'611.0
2017-May-25 04:00N 60°14' E 027°49'611.3
2017-May-25 03:30N 60°19' E 027°56'611.2
2017-May-25 03:00N 60°23' E 028°03'  
2017-May-22 19:10N 60°24' E 028°04'412.5
2017-May-22 18:49N 60°20' E 027°59'413.0
2017-May-22 18:30N 60°17' E 027°55'612.7
2017-May-22 18:00N 60°12' E 027°47'612.9
2017-May-22 17:30N 60°08' E 027°36'713.3
2017-May-22 17:00N 60°05' E 027°25'713.2
2017-May-22 16:30N 60°01' E 027°14'612.9
2017-May-22 16:00N 59°58' E 027°03'713.1
2017-May-22 15:30N 59°59' E 026°50'612.8
2017-May-22 15:00N 59°59' E 026°37'1312.8
2017-May-22 13:59N 59°55' E 026°12'612.8
2017-May-22 13:28N 59°53' E 025°59'  
2017-May-19 13:53N 59°57' E 025°38'411.5
2017-May-19 13:31N 59°57' E 025°47'611.5
2017-May-19 13:00N 59°57' E 025°58'611.6
2017-May-19 12:30N 59°58' E 026°10'711.6
2017-May-19 11:54N 59°60' E 026°23'511.8
2017-May-19 11:29N 60°01' E 026°33'611.9
2017-May-19 11:00N 60°01' E 026°44'611.8
2017-May-19 10:30N 60°00' E 026°56'611.3
2017-May-19 10:00N 60°01' E 027°08'611.7
2017-May-19 09:27N 60°04' E 027°19'611.8
2017-May-19 08:59N 60°07' E 027°28'611.9
2017-May-19 08:30N 60°10' E 027°38'611.8
2017-May-19 08:00N 60°13' E 027°48'711.6
2017-May-19 07:26N 60°18' E 027°56'2 0.0
2017-May-17 21:39N 60°19' E 027°58'212.7
2017-May-17 21:30N 60°18' E 027°56'612.8
2017-May-17 21:00N 60°13' E 027°49'510.3
2017-May-17 20:30N 60°09' E 027°41'511.1
2017-May-17 20:00N 60°07' E 027°31'612.7
2017-May-17 19:30N 60°03' E 027°21'612.6
2017-May-17 19:00N 59°60' E 027°10'  
Track history (hours):
 
Tides and Currents Weather Stations Pressure Air Temp Water Temp Dewpoint Dewpoint Depression Visibility Wind Speed Wind Dir Waves Ship Positions

Eira

Last reported at 2017-May-27 18:54 UTC. Time now 2017-May-29 01:56 UTC.
Position N 60°17' E 027°54'.

Length 157 m; draft 6.2 m.

Type: Cargo ship. MMSI: 230935000.

Date/timePositionNaut miles runAvg speedWind from/ knotsBaromVisibWave heightAir tempDewpointWater temp
2017-May-27 18:54N 60°17' E 027°54'512.5
2017-May-27 18:28N 60°13' E 027°48'612.2
2017-May-27 18:00N 60°09' E 027°39'612.3
2017-May-27 17:30N 60°06' E 027°29'1012.4
2017-May-27 16:43N 60°01' E 027°12'312.6
2017-May-27 16:30N 59°59' E 027°07'612.0
2017-May-27 15:58N 59°59' E 026°55'612.8
2017-May-27 15:30N 59°59' E 026°43'612.6
2017-May-27 15:00N 59°58' E 026°30'612.8
2017-May-27 14:30N 59°57' E 026°18'1212.4
2017-May-27 13:30N 59°54' E 025°54'612.3
2017-May-27 13:00N 59°52' E 025°42'612.6
2017-May-27 12:30N 59°51' E 025°30'1112.5
2017-May-27 11:39N 59°49' E 025°09'3012.9
2017-May-27 09:21N 59°51' E 024°10'411.3
2017-May-27 09:01N 59°55' E 024°11'510.7
2017-May-27 08:30N 59°58' E 024°04'5 9.4
2017-May-27 08:01N 60°01' E 023°56'0 0.5
2017-May-27 07:30N 60°01' E 023°55'0 0.0
2017-May-27 06:56N 60°01' E 023°55'0 0.0
2017-May-26 04:59N 60°01' E 023°55'0 0.0
2017-May-26 04:29N 60°01' E 023°55'0 0.0
2017-May-26 03:59N 60°01' E 023°55'0 0.0
2017-May-26 03:29N 60°01' E 023°55'0 0.0
2017-May-26 02:59N 60°01' E 023°55'0 0.0
2017-May-26 02:29N 60°01' E 023°55'0 0.0
2017-May-26 01:59N 60°01' E 023°55'0 0.0
2017-May-26 01:26N 60°01' E 023°55'0 0.0
2017-May-26 00:59N 60°01' E 023°55'0 0.0
2017-May-26 00:29N 60°01' E 023°55'0 0.0
2017-May-25 23:59N 60°01' E 023°55'0 0.0
2017-May-25 23:29N 60°01' E 023°55'0 0.0
2017-May-25 22:59N 60°01' E 023°55'0 0.0
2017-May-25 22:29N 60°01' E 023°55'0 0.0
2017-May-25 21:56N 60°01' E 023°55'0 0.0
2017-May-25 21:29N 60°01' E 023°55'0 0.0
2017-May-25 20:53N 60°01' E 023°55'0 0.0
2017-May-25 20:29N 60°01' E 023°55'0 0.0
2017-May-25 19:59N 60°01' E 023°55'0 0.0
2017-May-25 19:26N 60°01' E 023°55'0 0.0
2017-May-25 18:59N 60°01' E 023°55'0 0.0
2017-May-25 18:23N 60°01' E 023°55'0 0.0
2017-May-25 17:59N 60°01' E 023°55'0 0.0
2017-May-25 17:23N 60°01' E 023°55'0 0.0
2017-May-25 16:47N 60°01' E 023°55'0 0.0
2017-May-25 16:29N 60°01' E 023°55'1 2.6
2017-May-25 15:59N 60°00' E 023°58'4 7.4
2017-May-25 15:30N 59°58' E 024°03'611.4
2017-May-25 15:00N 59°54' E 024°11'42 9.7
2017-May-25 10:41N 59°55' E 025°35'210.6
2017-May-25 10:30N 59°55' E 025°38'510.7
2017-May-25 10:00N 59°56' E 025°49'1110.7
2017-May-25 09:00N 59°58' E 026°10'610.6
2017-May-25 08:25N 60°00' E 026°22'410.8
2017-May-25 08:00N 60°01' E 026°30'510.5
2017-May-25 07:30N 60°01' E 026°41'510.8
2017-May-25 07:00N 60°00' E 026°51'611.0
2017-May-25 06:26N 59°60' E 027°04'511.0
2017-May-25 06:00N 60°02' E 027°12'611.2
2017-May-25 05:30N 60°05' E 027°22'611.3
2017-May-25 05:00N 60°08' E 027°31'611.1
2017-May-25 04:30N 60°11' E 027°41'611.0
2017-May-25 04:00N 60°14' E 027°49'611.3
2017-May-25 03:30N 60°19' E 027°56'611.2
2017-May-25 03:00N 60°23' E 028°03'  
2017-May-22 19:10N 60°24' E 028°04'412.5
2017-May-22 18:49N 60°20' E 027°59'413.0
2017-May-22 18:30N 60°17' E 027°55'612.7
2017-May-22 18:00N 60°12' E 027°47'612.9
2017-May-22 17:30N 60°08' E 027°36'713.3
2017-May-22 17:00N 60°05' E 027°25'713.2
2017-May-22 16:30N 60°01' E 027°14'612.9
2017-May-22 16:00N 59°58' E 027°03'713.1
2017-May-22 15:30N 59°59' E 026°50'612.8
2017-May-22 15:00N 59°59' E 026°37'1312.8
2017-May-22 13:59N 59°55' E 026°12'612.8
2017-May-22 13:28N 59°53' E 025°59'  
2017-May-19 13:53N 59°57' E 025°38'411.5
2017-May-19 13:31N 59°57' E 025°47'611.5
2017-May-19 13:00N 59°57' E 025°58'611.6
2017-May-19 12:30N 59°58' E 026°10'711.6
2017-May-19 11:54N 59°60' E 026°23'511.8
2017-May-19 11:29N 60°01' E 026°33'611.9
2017-May-19 11:00N 60°01' E 026°44'611.8
2017-May-19 10:30N 60°00' E 026°56'611.3
2017-May-19 10:00N 60°01' E 027°08'611.7
2017-May-19 09:27N 60°04' E 027°19'611.8
2017-May-19 08:59N 60°07' E 027°28'611.9
2017-May-19 08:30N 60°10' E 027°38'611.8
2017-May-19 08:00N 60°13' E 027°48'711.6
2017-May-19 07:26N 60°18' E 027°56'2 0.0
2017-May-17 21:39N 60°19' E 027°58'212.7
2017-May-17 21:30N 60°18' E 027°56'612.8
2017-May-17 21:00N 60°13' E 027°49'510.3
2017-May-17 20:30N 60°09' E 027°41'511.1
2017-May-17 20:00N 60°07' E 027°31'612.7
2017-May-17 19:30N 60°03' E 027°21'612.6
2017-May-17 19:00N 59°60' E 027°10'  

Dump ship's entire track history